sensor_id;sensor_type;location;lat;lon;timestamp;temperature;humidity
728;DHT22;347;48.780;9.158;2022-07-29T00:00:43;21.70;42.60
728;DHT22;347;48.780;9.158;2022-07-29T00:03:13;21.70;42.50
728;DHT22;347;48.780;9.158;2022-07-29T00:05:40;21.60;43.00
728;DHT22;347;48.780;9.158;2022-07-29T00:08:06;21.60;43.30
728;DHT22;347;48.780;9.158;2022-07-29T00:10:32;21.60;43.30
728;DHT22;347;48.780;9.158;2022-07-29T00:12:58;21.60;43.60
728;DHT22;347;48.780;9.158;2022-07-29T00:15:24;21.60;43.10
728;DHT22;347;48.780;9.158;2022-07-29T00:17:49;21.60;44.00
728;DHT22;347;48.780;9.158;2022-07-29T00:20:15;21.50;44.60
728;DHT22;347;48.780;9.158;2022-07-29T00:22:41;21.50;44.90
728;DHT22;347;48.780;9.158;2022-07-29T00:25:07;21.50;45.10
728;DHT22;347;48.780;9.158;2022-07-29T00:27:34;21.50;45.10
728;DHT22;347;48.780;9.158;2022-07-29T00:30:00;21.40;45.40
728;DHT22;347;48.780;9.158;2022-07-29T00:32:26;21.50;45.60
728;DHT22;347;48.780;9.158;2022-07-29T00:34:52;21.50;45.30
728;DHT22;347;48.780;9.158;2022-07-29T00:37:36;21.40;46.10
728;DHT22;347;48.780;9.158;2022-07-29T00:40:02;21.40;45.80
728;DHT22;347;48.780;9.158;2022-07-29T00:42:28;21.30;46.40
728;DHT22;347;48.780;9.158;2022-07-29T00:44:54;21.40;46.00
728;DHT22;347;48.780;9.158;2022-07-29T00:47:20;21.20;46.60
728;DHT22;347;48.780;9.158;2022-07-29T00:49:46;21.40;45.50
728;DHT22;347;48.780;9.158;2022-07-29T00:52:12;21.30;46.10
728;DHT22;347;48.780;9.158;2022-07-29T00:54:39;21.30;46.00
728;DHT22;347;48.780;9.158;2022-07-29T00:57:06;21.30;46.10
728;DHT22;347;48.780;9.158;2022-07-29T00:59:33;21.50;47.00
728;DHT22;347;48.780;9.158;2022-07-29T01:01:59;21.60;45.70
728;DHT22;347;48.780;9.158;2022-07-29T01:04:25;21.70;44.90
728;DHT22;347;48.780;9.158;2022-07-29T01:06:52;21.60;44.80
728;DHT22;347;48.780;9.158;2022-07-29T01:09:19;21.80;44.10
728;DHT22;347;48.780;9.158;2022-07-29T01:11:46;21.70;44.40
728;DHT22;347;48.780;9.158;2022-07-29T01:14:13;21.60;45.00
728;DHT22;347;48.780;9.158;2022-07-29T01:16:51;21.50;45.30
728;DHT22;347;48.780;9.158;2022-07-29T01:19:58;21.50;45.40
728;DHT22;347;48.780;9.158;2022-07-29T01:30:44;21.20;45.50
728;DHT22;347;48.780;9.158;2022-07-29T01:33:15;21.20;45.50
728;DHT22;347;48.780;9.158;2022-07-29T01:36:10;21.20;45.40
728;DHT22;347;48.780;9.158;2022-07-29T01:38:39;21.10;46.00
728;DHT22;347;48.780;9.158;2022-07-29T01:41:09;21.10;45.50
728;DHT22;347;48.780;9.158;2022-07-29T01:43:49;21.20;45.30
728;DHT22;347;48.780;9.158;2022-07-29T01:46:21;21.10;45.50
728;DHT22;347;48.780;9.158;2022-07-29T01:48:56;21.20;45.30
728;DHT22;347;48.780;9.158;2022-07-29T01:51:29;21.30;44.70
728;DHT22;347;48.780;9.158;2022-07-29T01:54:38;21.10;45.20
728;DHT22;347;48.780;9.158;2022-07-29T01:57:09;21.10;45.40
728;DHT22;347;48.780;9.158;2022-07-29T01:59:37;21.10;45.30
728;DHT22;347;48.780;9.158;2022-07-29T02:02:04;21.10;45.80
728;DHT22;347;48.780;9.158;2022-07-29T02:04:33;21.20;45.10
728;DHT22;347;48.780;9.158;2022-07-29T02:07:04;21.10;45.60
728;DHT22;347;48.780;9.158;2022-07-29T02:09:32;21.00;45.20
728;DHT22;347;48.780;9.158;2022-07-29T02:11:59;21.00;45.00
728;DHT22;347;48.780;9.158;2022-07-29T02:14:28;20.90;45.30
728;DHT22;347;48.780;9.158;2022-07-29T02:16:56;20.80;45.70
728;DHT22;347;48.780;9.158;2022-07-29T02:19:24;20.90;46.10
728;DHT22;347;48.780;9.158;2022-07-29T02:21:53;20.90;45.10
728;DHT22;347;48.780;9.158;2022-07-29T02:24:21;20.90;44.80
728;DHT22;347;48.780;9.158;2022-07-29T02:26:47;20.90;45.00
728;DHT22;347;48.780;9.158;2022-07-29T02:29:15;20.80;44.80
728;DHT22;347;48.780;9.158;2022-07-29T02:31:44;20.90;45.40
728;DHT22;347;48.780;9.158;2022-07-29T02:34:13;20.90;44.80
728;DHT22;347;48.780;9.158;2022-07-29T02:36:40;20.80;45.10
728;DHT22;347;48.780;9.158;2022-07-29T02:39:08;20.80;45.30
728;DHT22;347;48.780;9.158;2022-07-29T02:41:44;20.90;44.90
728;DHT22;347;48.780;9.158;2022-07-29T02:44:18;20.70;44.90
728;DHT22;347;48.780;9.158;2022-07-29T02:47:03;20.80;44.80
728;DHT22;347;48.780;9.158;2022-07-29T02:49:41;20.80;44.80
728;DHT22;347;48.780;9.158;2022-07-29T02:54:48;21.00;44.10
728;DHT22;347;48.780;9.158;2022-07-29T02:57:31;21.00;44.00
728;DHT22;347;48.780;9.158;2022-07-29T03:00:01;20.90;44.20
728;DHT22;347;48.780;9.158;2022-07-29T03:02:34;21.00;43.70
728;DHT22;347;48.780;9.158;2022-07-29T03:05:02;21.10;43.70
728;DHT22;347;48.780;9.158;2022-07-29T03:07:29;21.10;43.30
728;DHT22;347;48.780;9.158;2022-07-29T03:09:55;21.20;42.90
728;DHT22;347;48.780;9.158;2022-07-29T03:12:22;21.20;42.50
728;DHT22;347;48.780;9.158;2022-07-29T03:14:48;21.30;43.10
728;DHT22;347;48.780;9.158;2022-07-29T03:17:15;21.60;41.70
728;DHT22;347;48.780;9.158;2022-07-29T03:19:42;21.80;40.10
728;DHT22;347;48.780;9.158;2022-07-29T03:22:08;22.00;39.40
728;DHT22;347;48.780;9.158;2022-07-29T03:24:35;21.60;41.70
728;DHT22;347;48.780;9.158;2022-07-29T03:27:02;21.20;42.70
728;DHT22;347;48.780;9.158;2022-07-29T03:29:28;21.10;43.40
728;DHT22;347;48.780;9.158;2022-07-29T03:31:54;21.00;43.70
728;DHT22;347;48.780;9.158;2022-07-29T03:34:20;20.90;44.40
728;DHT22;347;48.780;9.158;2022-07-29T03:36:46;20.90;44.90
728;DHT22;347;48.780;9.158;2022-07-29T03:39:17;20.90;44.50
728;DHT22;347;48.780;9.158;2022-07-29T03:41:45;20.90;44.40
728;DHT22;347;48.780;9.158;2022-07-29T03:44:13;20.80;45.10
728;DHT22;347;48.780;9.158;2022-07-29T03:46:42;20.60;45.40
728;DHT22;347;48.780;9.158;2022-07-29T03:49:08;20.70;45.20
728;DHT22;347;48.780;9.158;2022-07-29T03:51:35;20.70;45.40
728;DHT22;347;48.780;9.158;2022-07-29T03:54:02;20.70;45.60
728;DHT22;347;48.780;9.158;2022-07-29T03:56:29;20.80;45.00
728;DHT22;347;48.780;9.158;2022-07-29T03:58:56;21.00;44.30
728;DHT22;347;48.780;9.158;2022-07-29T04:01:22;20.90;44.40
728;DHT22;347;48.780;9.158;2022-07-29T04:03:49;20.80;45.00
728;DHT22;347;48.780;9.158;2022-07-29T04:06:16;20.70;45.40
728;DHT22;347;48.780;9.158;2022-07-29T04:08:42;20.80;44.80
728;DHT22;347;48.780;9.158;2022-07-29T04:11:08;20.70;45.10
728;DHT22;347;48.780;9.158;2022-07-29T04:13:34;21.00;43.70
728;DHT22;347;48.780;9.158;2022-07-29T04:15:59;21.10;42.80
728;DHT22;347;48.780;9.158;2022-07-29T04:18:25;21.00;42.80
728;DHT22;347;48.780;9.158;2022-07-29T04:20:51;21.10;42.60
728;DHT22;347;48.780;9.158;2022-07-29T04:23:17;21.00;42.80
728;DHT22;347;48.780;9.158;2022-07-29T04:25:42;20.80;43.20
728;DHT22;347;48.780;9.158;2022-07-29T04:28:09;20.60;44.10
728;DHT22;347;48.780;9.158;2022-07-29T04:30:36;20.70;44.10
728;DHT22;347;48.780;9.158;2022-07-29T04:33:03;20.60;44.50
728;DHT22;347;48.780;9.158;2022-07-29T04:35:33;20.50;45.10
728;DHT22;347;48.780;9.158;2022-07-29T04:37:59;20.50;45.20
728;DHT22;347;48.780;9.158;2022-07-29T04:40:24;20.50;45.00
728;DHT22;347;48.780;9.158;2022-07-29T04:42:50;20.40;45.40
728;DHT22;347;48.780;9.158;2022-07-29T04:45:16;20.60;45.50
728;DHT22;347;48.780;9.158;2022-07-29T04:47:41;20.90;43.00
728;DHT22;347;48.780;9.158;2022-07-29T04:50:08;21.20;42.00
728;DHT22;347;48.780;9.158;2022-07-29T04:52:34;21.40;41.60
728;DHT22;347;48.780;9.158;2022-07-29T04:55:01;21.60;40.80
728;DHT22;347;48.780;9.158;2022-07-29T04:57:27;21.80;40.30
728;DHT22;347;48.780;9.158;2022-07-29T04:59:52;21.90;39.60
728;DHT22;347;48.780;9.158;2022-07-29T05:02:21;21.50;40.60
728;DHT22;347;48.780;9.158;2022-07-29T05:04:47;21.20;41.40
728;DHT22;347;48.780;9.158;2022-07-29T05:07:13;21.00;42.60
728;DHT22;347;48.780;9.158;2022-07-29T05:09:39;20.90;42.70
728;DHT22;347;48.780;9.158;2022-07-29T05:12:06;20.70;43.50
728;DHT22;347;48.780;9.158;2022-07-29T05:14:32;20.70;43.20
728;DHT22;347;48.780;9.158;2022-07-29T05:16:58;20.70;43.40
728;DHT22;347;48.780;9.158;2022-07-29T05:19:24;20.80;42.60
728;DHT22;347;48.780;9.158;2022-07-29T05:21:50;20.60;43.10
728;DHT22;347;48.780;9.158;2022-07-29T05:24:16;20.50;43.90
728;DHT22;347;48.780;9.158;2022-07-29T05:26:42;20.70;43.10
728;DHT22;347;48.780;9.158;2022-07-29T05:29:08;20.80;42.40
728;DHT22;347;48.780;9.158;2022-07-29T05:31:34;20.90;42.00
728;DHT22;347;48.780;9.158;2022-07-29T05:34:00;20.90;41.50
728;DHT22;347;48.780;9.158;2022-07-29T05:36:26;21.00;41.20
728;DHT22;347;48.780;9.158;2022-07-29T05:38:52;20.90;41.60
728;DHT22;347;48.780;9.158;2022-07-29T05:41:18;21.00;41.20
728;DHT22;347;48.780;9.158;2022-07-29T05:43:44;21.00;41.20
728;DHT22;347;48.780;9.158;2022-07-29T05:46:10;21.10;41.30
728;DHT22;347;48.780;9.158;2022-07-29T05:48:36;21.20;40.50
728;DHT22;347;48.780;9.158;2022-07-29T05:51:02;21.30;40.10
728;DHT22;347;48.780;9.158;2022-07-29T05:53:28;21.30;40.10
728;DHT22;347;48.780;9.158;2022-07-29T05:55:54;21.40;39.80
728;DHT22;347;48.780;9.158;2022-07-29T05:58:23;21.50;39.40
728;DHT22;347;48.780;9.158;2022-07-29T06:00:49;21.50;39.50
728;DHT22;347;48.780;9.158;2022-07-29T06:03:15;21.50;39.60
728;DHT22;347;48.780;9.158;2022-07-29T06:05:41;21.50;39.40
728;DHT22;347;48.780;9.158;2022-07-29T06:08:06;21.70;38.70
728;DHT22;347;48.780;9.158;2022-07-29T06:10:34;21.80;38.60
728;DHT22;347;48.780;9.158;2022-07-29T06:13:00;21.90;38.70
728;DHT22;347;48.780;9.158;2022-07-29T06:15:26;22.10;38.10
728;DHT22;347;48.780;9.158;2022-07-29T06:17:52;22.10;37.80
728;DHT22;347;48.780;9.158;2022-07-29T06:20:18;22.00;38.10
728;DHT22;347;48.780;9.158;2022-07-29T06:22:44;22.00;38.10
728;DHT22;347;48.780;9.158;2022-07-29T06:25:09;22.10;38.00
728;DHT22;347;48.780;9.158;2022-07-29T06:27:35;22.00;38.00
728;DHT22;347;48.780;9.158;2022-07-29T06:30:01;22.20;37.90
728;DHT22;347;48.780;9.158;2022-07-29T06:32:27;22.20;37.50
728;DHT22;347;48.780;9.158;2022-07-29T06:34:56;22.30;37.50
728;DHT22;347;48.780;9.158;2022-07-29T06:37:27;22.40;37.10
728;DHT22;347;48.780;9.158;2022-07-29T06:39:53;22.40;36.70
728;DHT22;347;48.780;9.158;2022-07-29T06:42:42;22.40;36.70
728;DHT22;347;48.780;9.158;2022-07-29T06:45:09;22.50;36.70
728;DHT22;347;48.780;9.158;2022-07-29T06:47:35;22.60;36.40
728;DHT22;347;48.780;9.158;2022-07-29T06:50:00;22.70;35.90
728;DHT22;347;48.780;9.158;2022-07-29T06:52:26;22.80;35.40
728;DHT22;347;48.780;9.158;2022-07-29T06:54:51;22.80;35.20
728;DHT22;347;48.780;9.158;2022-07-29T06:57:18;22.90;35.10
728;DHT22;347;48.780;9.158;2022-07-29T06:59:44;23.10;34.80
728;DHT22;347;48.780;9.158;2022-07-29T07:02:09;23.10;35.00
728;DHT22;347;48.780;9.158;2022-07-29T07:04:35;23.10;34.90
728;DHT22;347;48.780;9.158;2022-07-29T07:07:01;23.20;34.50
728;DHT22;347;48.780;9.158;2022-07-29T07:09:27;23.20;34.20
728;DHT22;347;48.780;9.158;2022-07-29T07:12:01;23.30;33.90
728;DHT22;347;48.780;9.158;2022-07-29T07:14:27;23.50;33.00
728;DHT22;347;48.780;9.158;2022-07-29T07:16:53;23.50;33.00
728;DHT22;347;48.780;9.158;2022-07-29T07:19:19;23.50;32.90
728;DHT22;347;48.780;9.158;2022-07-29T07:21:45;23.60;33.10
728;DHT22;347;48.780;9.158;2022-07-29T07:24:19;23.70;33.10
728;DHT22;347;48.780;9.158;2022-07-29T07:26:51;23.70;32.50
728;DHT22;347;48.780;9.158;2022-07-29T07:29:20;23.70;33.20
728;DHT22;347;48.780;9.158;2022-07-29T07:32:00;23.80;32.30
728;DHT22;347;48.780;9.158;2022-07-29T07:34:42;23.90;31.50
728;DHT22;347;48.780;9.158;2022-07-29T07:37:36;23.90;32.50
728;DHT22;347;48.780;9.158;2022-07-29T07:40:07;23.80;31.90
728;DHT22;347;48.780;9.158;2022-07-29T07:43:11;23.90;32.10
728;DHT22;347;48.780;9.158;2022-07-29T07:45:58;23.80;31.30
728;DHT22;347;48.780;9.158;2022-07-29T07:51:37;24.00;30.00
728;DHT22;347;48.780;9.158;2022-07-29T07:54:04;24.10;29.10
728;DHT22;347;48.780;9.158;2022-07-29T07:56:41;24.10;28.60
728;DHT22;347;48.780;9.158;2022-07-29T07:59:08;24.10;29.00
728;DHT22;347;48.780;9.158;2022-07-29T08:01:44;24.20;28.90
728;DHT22;347;48.780;9.158;2022-07-29T08:04:24;24.10;28.60
728;DHT22;347;48.780;9.158;2022-07-29T08:07:04;24.20;28.80
728;DHT22;347;48.780;9.158;2022-07-29T08:09:36;24.20;27.40
728;DHT22;347;48.780;9.158;2022-07-29T08:12:04;24.30;28.10
728;DHT22;347;48.780;9.158;2022-07-29T08:14:55;24.30;27.90
728;DHT22;347;48.780;9.158;2022-07-29T08:17:24;24.30;26.70
728;DHT22;347;48.780;9.158;2022-07-29T08:20:03;24.30;27.10
728;DHT22;347;48.780;9.158;2022-07-29T08:22:47;24.30;27.50
728;DHT22;347;48.780;9.158;2022-07-29T08:25:13;24.30;27.30
728;DHT22;347;48.780;9.158;2022-07-29T08:27:48;24.30;26.80
728;DHT22;347;48.780;9.158;2022-07-29T08:30:26;24.30;25.50
728;DHT22;347;48.780;9.158;2022-07-29T08:32:55;24.40;26.50
728;DHT22;347;48.780;9.158;2022-07-29T08:35:23;24.40;26.80
728;DHT22;347;48.780;9.158;2022-07-29T08:37:53;24.40;26.50
728;DHT22;347;48.780;9.158;2022-07-29T08:40:21;24.60;26.20
728;DHT22;347;48.780;9.158;2022-07-29T08:43:07;24.60;25.40
728;DHT22;347;48.780;9.158;2022-07-29T08:46:48;24.70;25.40
728;DHT22;347;48.780;9.158;2022-07-29T08:53:06;24.80;24.80
728;DHT22;347;48.780;9.158;2022-07-29T08:55:53;25.00;23.60
728;DHT22;347;48.780;9.158;2022-07-29T08:58:31;25.00;23.60
728;DHT22;347;48.780;9.158;2022-07-29T09:00:57;25.40;22.40
728;DHT22;347;48.780;9.158;2022-07-29T09:03:33;25.50;22.80
728;DHT22;347;48.780;9.158;2022-07-29T09:06:00;25.30;22.70
728;DHT22;347;48.780;9.158;2022-07-29T09:08:27;25.20;22.70
728;DHT22;347;48.780;9.158;2022-07-29T09:10:56;25.10;23.40
728;DHT22;347;48.780;9.158;2022-07-29T09:13:23;25.10;23.50
728;DHT22;347;48.780;9.158;2022-07-29T09:15:49;25.10;23.50
728;DHT22;347;48.780;9.158;2022-07-29T09:18:33;25.00;23.50
728;DHT22;347;48.780;9.158;2022-07-29T09:21:00;25.00;23.50
728;DHT22;347;48.780;9.158;2022-07-29T09:26:33;25.10;23.50
728;DHT22;347;48.780;9.158;2022-07-29T09:28:59;25.10;23.70
728;DHT22;347;48.780;9.158;2022-07-29T09:31:36;25.10;23.70
728;DHT22;347;48.780;9.158;2022-07-29T09:34:04;25.10;23.40
728;DHT22;347;48.780;9.158;2022-07-29T09:36:30;25.30;22.30
728;DHT22;347;48.780;9.158;2022-07-29T09:39:00;25.80;21.20
728;DHT22;347;48.780;9.158;2022-07-29T09:41:27;26.30;20.40
728;DHT22;347;48.780;9.158;2022-07-29T09:43:54;26.60;19.60
728;DHT22;347;48.780;9.158;2022-07-29T09:46:20;26.70;19.10
728;DHT22;347;48.780;9.158;2022-07-29T09:49:09;26.80;19.10
728;DHT22;347;48.780;9.158;2022-07-29T09:51:35;26.70;19.50
728;DHT22;347;48.780;9.158;2022-07-29T09:54:01;26.60;19.90
728;DHT22;347;48.780;9.158;2022-07-29T09:56:40;26.40;20.50
728;DHT22;347;48.780;9.158;2022-07-29T09:59:06;26.30;21.10
728;DHT22;347;48.780;9.158;2022-07-29T10:01:32;26.50;20.90
728;DHT22;347;48.780;9.158;2022-07-29T10:04:01;26.40;20.50
728;DHT22;347;48.780;9.158;2022-07-29T10:06:27;26.50;20.90
728;DHT22;347;48.780;9.158;2022-07-29T10:08:54;26.30;21.00
728;DHT22;347;48.780;9.158;2022-07-29T10:11:20;26.20;21.20
728;DHT22;347;48.780;9.158;2022-07-29T10:13:48;26.10;21.00
728;DHT22;347;48.780;9.158;2022-07-29T10:16:15;26.00;21.30
728;DHT22;347;48.780;9.158;2022-07-29T10:18:42;26.10;20.90
728;DHT22;347;48.780;9.158;2022-07-29T10:21:09;26.10;21.30
728;DHT22;347;48.780;9.158;2022-07-29T10:23:36;26.10;20.90
728;DHT22;347;48.780;9.158;2022-07-29T10:26:02;26.20;20.80
728;DHT22;347;48.780;9.158;2022-07-29T10:28:30;26.00;21.60
728;DHT22;347;48.780;9.158;2022-07-29T10:31:01;25.80;21.90
728;DHT22;347;48.780;9.158;2022-07-29T10:44:19;25.40;23.80
728;DHT22;347;48.780;9.158;2022-07-29T10:46:46;25.30;23.80
728;DHT22;347;48.780;9.158;2022-07-29T10:49:20;25.30;24.00
728;DHT22;347;48.780;9.158;2022-07-29T10:54:43;25.20;25.20
728;DHT22;347;48.780;9.158;2022-07-29T11:05:23;25.00;26.80
728;DHT22;347;48.780;9.158;2022-07-29T11:10:45;24.80;28.40
728;DHT22;347;48.780;9.158;2022-07-29T11:13:11;24.60;36.60
728;DHT22;347;48.780;9.158;2022-07-29T11:16:06;24.40;39.70
728;DHT22;347;48.780;9.158;2022-07-29T11:21:43;22.60;48.80
728;DHT22;347;48.780;9.158;2022-07-29T11:24:18;22.70;51.90
728;DHT22;347;48.780;9.158;2022-07-29T11:26:44;22.90;50.40
728;DHT22;347;48.780;9.158;2022-07-29T11:29:21;23.10;50.40
728;DHT22;347;48.780;9.158;2022-07-29T11:32:10;22.90;49.50
728;DHT22;347;48.780;9.158;2022-07-29T11:34:36;22.60;50.80
728;DHT22;347;48.780;9.158;2022-07-29T11:39:39;22.30;51.40
728;DHT22;347;48.780;9.158;2022-07-29T11:47:42;22.70;53.50
728;DHT22;347;48.780;9.158;2022-07-29T11:50:18;22.90;53.00
728;DHT22;347;48.780;9.158;2022-07-29T11:52:51;23.00;52.20
728;DHT22;347;48.780;9.158;2022-07-29T11:55:20;23.10;51.40
728;DHT22;347;48.780;9.158;2022-07-29T11:57:57;22.90;49.80
728;DHT22;347;48.780;9.158;2022-07-29T12:02:54;22.50;50.10
728;DHT22;347;48.780;9.158;2022-07-29T12:05:21;22.40;48.60
728;DHT22;347;48.780;9.158;2022-07-29T12:07:49;22.30;47.40
728;DHT22;347;48.780;9.158;2022-07-29T12:10:15;22.10;46.20
728;DHT22;347;48.780;9.158;2022-07-29T12:12:41;22.00;50.10
728;DHT22;347;48.780;9.158;2022-07-29T12:15:12;22.10;52.20
728;DHT22;347;48.780;9.158;2022-07-29T12:17:38;22.10;47.40
728;DHT22;347;48.780;9.158;2022-07-29T12:20:05;22.20;46.30
728;DHT22;347;48.780;9.158;2022-07-29T12:22:36;22.30;47.30
728;DHT22;347;48.780;9.158;2022-07-29T12:27:31;22.30;42.30
728;DHT22;347;48.780;9.158;2022-07-29T12:29:58;22.30;44.80
728;DHT22;347;48.780;9.158;2022-07-29T12:35:24;22.20;38.70
728;DHT22;347;48.780;9.158;2022-07-29T12:37:51;22.20;39.60
728;DHT22;347;48.780;9.158;2022-07-29T12:40:18;22.20;38.70
728;DHT22;347;48.780;9.158;2022-07-29T12:43:10;22.30;40.70
728;DHT22;347;48.780;9.158;2022-07-29T12:45:38;22.30;38.70
728;DHT22;347;48.780;9.158;2022-07-29T12:48:04;22.60;41.50
728;DHT22;347;48.780;9.158;2022-07-29T12:50:30;22.80;40.90
728;DHT22;347;48.780;9.158;2022-07-29T12:53:18;22.90;38.90
728;DHT22;347;48.780;9.158;2022-07-29T12:55:46;22.90;39.10
728;DHT22;347;48.780;9.158;2022-07-29T12:58:36;22.70;36.70
728;DHT22;347;48.780;9.158;2022-07-29T13:01:28;22.50;39.40
728;DHT22;347;48.780;9.158;2022-07-29T13:04:01;22.30;37.80
728;DHT22;347;48.780;9.158;2022-07-29T13:14:13;22.40;42.40
728;DHT22;347;48.780;9.158;2022-07-29T13:17:11;22.60;41.80
728;DHT22;347;48.780;9.158;2022-07-29T13:19:45;22.70;40.80
728;DHT22;347;48.780;9.158;2022-07-29T13:22:13;22.60;46.90
728;DHT22;347;48.780;9.158;2022-07-29T13:25:00;22.60;46.00
728;DHT22;347;48.780;9.158;2022-07-29T13:27:31;22.70;46.60
728;DHT22;347;48.780;9.158;2022-07-29T13:29:59;22.50;46.60
728;DHT22;347;48.780;9.158;2022-07-29T13:32:26;22.30;47.40
728;DHT22;347;48.780;9.158;2022-07-29T13:34:53;22.10;45.80
728;DHT22;347;48.780;9.158;2022-07-29T13:37:19;22.00;48.40
728;DHT22;347;48.780;9.158;2022-07-29T13:39:48;21.90;47.70
728;DHT22;347;48.780;9.158;2022-07-29T13:42:14;21.90;49.90
728;DHT22;347;48.780;9.158;2022-07-29T13:44:40;21.90;47.90
728;DHT22;347;48.780;9.158;2022-07-29T13:47:12;21.90;48.80
728;DHT22;347;48.780;9.158;2022-07-29T13:49:41;22.00;50.70
728;DHT22;347;48.780;9.158;2022-07-29T13:52:07;22.10;49.10
728;DHT22;347;48.780;9.158;2022-07-29T13:54:33;22.20;45.50
728;DHT22;347;48.780;9.158;2022-07-29T13:57:03;22.00;47.10
728;DHT22;347;48.780;9.158;2022-07-29T13:59:29;22.00;47.90
728;DHT22;347;48.780;9.158;2022-07-29T14:01:55;22.20;49.70
728;DHT22;347;48.780;9.158;2022-07-29T14:04:20;22.30;48.00
728;DHT22;347;48.780;9.158;2022-07-29T14:06:51;22.30;45.70
728;DHT22;347;48.780;9.158;2022-07-29T14:09:17;22.40;48.00
728;DHT22;347;48.780;9.158;2022-07-29T14:11:43;22.60;48.80
728;DHT22;347;48.780;9.158;2022-07-29T14:14:09;22.70;50.00
728;DHT22;347;48.780;9.158;2022-07-29T14:16:35;22.90;48.60
728;DHT22;347;48.780;9.158;2022-07-29T14:19:02;23.00;47.10
728;DHT22;347;48.780;9.158;2022-07-29T14:21:28;22.90;39.40
728;DHT22;347;48.780;9.158;2022-07-29T14:23:54;22.80;39.90
728;DHT22;347;48.780;9.158;2022-07-29T14:26:21;22.80;38.50
728;DHT22;347;48.780;9.158;2022-07-29T14:28:47;22.80;40.00
728;DHT22;347;48.780;9.158;2022-07-29T14:31:14;22.90;41.30
728;DHT22;347;48.780;9.158;2022-07-29T14:33:40;23.00;36.70
728;DHT22;347;48.780;9.158;2022-07-29T14:36:06;23.00;40.30
728;DHT22;347;48.780;9.158;2022-07-29T14:38:32;23.00;40.00
728;DHT22;347;48.780;9.158;2022-07-29T14:40:57;23.10;43.10
728;DHT22;347;48.780;9.158;2022-07-29T14:43:23;23.20;42.20
728;DHT22;347;48.780;9.158;2022-07-29T14:45:49;23.30;43.20
728;DHT22;347;48.780;9.158;2022-07-29T14:48:15;23.40;41.60
728;DHT22;347;48.780;9.158;2022-07-29T14:50:40;23.50;42.60
728;DHT22;347;48.780;9.158;2022-07-29T14:53:06;23.50;43.70
728;DHT22;347;48.780;9.158;2022-07-29T14:55:32;23.50;42.30
728;DHT22;347;48.780;9.158;2022-07-29T14:57:58;23.50;36.30
728;DHT22;347;48.780;9.158;2022-07-29T15:00:24;23.50;36.90
728;DHT22;347;48.780;9.158;2022-07-29T15:02:50;23.50;38.40
728;DHT22;347;48.780;9.158;2022-07-29T15:05:16;23.60;38.50
728;DHT22;347;48.780;9.158;2022-07-29T15:07:42;23.60;41.80
728;DHT22;347;48.780;9.158;2022-07-29T15:10:08;23.60;35.70
728;DHT22;347;48.780;9.158;2022-07-29T15:12:35;23.50;34.60
728;DHT22;347;48.780;9.158;2022-07-29T15:15:01;23.60;35.40
728;DHT22;347;48.780;9.158;2022-07-29T15:17:29;23.50;35.10
728;DHT22;347;48.780;9.158;2022-07-29T15:19:55;23.60;38.30
728;DHT22;347;48.780;9.158;2022-07-29T15:22:21;23.70;41.50
728;DHT22;347;48.780;9.158;2022-07-29T15:24:47;23.70;38.40
728;DHT22;347;48.780;9.158;2022-07-29T15:27:12;23.60;38.60
728;DHT22;347;48.780;9.158;2022-07-29T15:29:42;23.50;38.70
728;DHT22;347;48.780;9.158;2022-07-29T15:32:08;23.60;40.40
728;DHT22;347;48.780;9.158;2022-07-29T15:34:34;23.60;39.20
728;DHT22;347;48.780;9.158;2022-07-29T15:37:00;23.60;38.50
728;DHT22;347;48.780;9.158;2022-07-29T15:39:26;23.70;39.80
728;DHT22;347;48.780;9.158;2022-07-29T15:41:52;23.60;37.70
728;DHT22;347;48.780;9.158;2022-07-29T15:44:22;23.70;38.00
728;DHT22;347;48.780;9.158;2022-07-29T15:46:49;23.70;37.40
728;DHT22;347;48.780;9.158;2022-07-29T15:52:01;23.70;38.40
728;DHT22;347;48.780;9.158;2022-07-29T15:54:28;23.70;39.40
728;DHT22;347;48.780;9.158;2022-07-29T15:56:57;23.70;40.00
728;DHT22;347;48.780;9.158;2022-07-29T15:59:23;23.80;41.00
728;DHT22;347;48.780;9.158;2022-07-29T16:01:49;23.80;41.60
728;DHT22;347;48.780;9.158;2022-07-29T16:04:15;23.80;41.20
728;DHT22;347;48.780;9.158;2022-07-29T16:06:45;23.80;41.10
728;DHT22;347;48.780;9.158;2022-07-29T16:09:15;23.80;41.40
728;DHT22;347;48.780;9.158;2022-07-29T16:11:41;23.80;42.10
728;DHT22;347;48.780;9.158;2022-07-29T16:14:07;23.80;40.20
728;DHT22;347;48.780;9.158;2022-07-29T16:16:35;23.80;39.80
728;DHT22;347;48.780;9.158;2022-07-29T16:19:01;23.80;40.20
728;DHT22;347;48.780;9.158;2022-07-29T16:21:30;23.70;40.50
728;DHT22;347;48.780;9.158;2022-07-29T16:23:57;23.70;40.40
728;DHT22;347;48.780;9.158;2022-07-29T16:26:24;23.70;40.40
728;DHT22;347;48.780;9.158;2022-07-29T16:28:50;23.60;40.40
728;DHT22;347;48.780;9.158;2022-07-29T16:31:15;23.70;40.30
728;DHT22;347;48.780;9.158;2022-07-29T16:33:42;23.80;40.90
728;DHT22;347;48.780;9.158;2022-07-29T16:36:08;23.80;40.50
728;DHT22;347;48.780;9.158;2022-07-29T16:38:34;23.90;41.40
728;DHT22;347;48.780;9.158;2022-07-29T16:41:00;23.90;41.20
728;DHT22;347;48.780;9.158;2022-07-29T16:43:26;23.80;40.10
728;DHT22;347;48.780;9.158;2022-07-29T16:45:52;23.80;39.90
728;DHT22;347;48.780;9.158;2022-07-29T16:48:18;23.80;40.20
728;DHT22;347;48.780;9.158;2022-07-29T16:50:44;23.80;41.10
728;DHT22;347;48.780;9.158;2022-07-29T16:53:10;23.80;42.40
728;DHT22;347;48.780;9.158;2022-07-29T16:55:36;23.70;41.90
728;DHT22;347;48.780;9.158;2022-07-29T16:58:02;23.70;43.20
728;DHT22;347;48.780;9.158;2022-07-29T17:00:28;23.80;43.60
728;DHT22;347;48.780;9.158;2022-07-29T17:02:54;23.70;43.60
728;DHT22;347;48.780;9.158;2022-07-29T17:05:19;23.70;43.60
728;DHT22;347;48.780;9.158;2022-07-29T17:07:45;23.60;44.70
728;DHT22;347;48.780;9.158;2022-07-29T17:10:11;23.50;44.40
728;DHT22;347;48.780;9.158;2022-07-29T17:12:39;23.60;43.50
728;DHT22;347;48.780;9.158;2022-07-29T17:15:06;23.50;43.90
728;DHT22;347;48.780;9.158;2022-07-29T17:17:32;23.60;44.80
728;DHT22;347;48.780;9.158;2022-07-29T17:19:58;23.60;43.90
728;DHT22;347;48.780;9.158;2022-07-29T17:22:24;23.70;43.60
728;DHT22;347;48.780;9.158;2022-07-29T17:24:51;23.60;43.50
728;DHT22;347;48.780;9.158;2022-07-29T17:27:17;23.70;43.60
728;DHT22;347;48.780;9.158;2022-07-29T17:29:43;23.70;44.30
728;DHT22;347;48.780;9.158;2022-07-29T17:32:09;23.80;45.90
728;DHT22;347;48.780;9.158;2022-07-29T17:34:40;23.80;45.10
728;DHT22;347;48.780;9.158;2022-07-29T17:37:08;23.70;44.50
728;DHT22;347;48.780;9.158;2022-07-29T17:39:34;23.70;44.70
728;DHT22;347;48.780;9.158;2022-07-29T17:42:04;23.70;43.60
728;DHT22;347;48.780;9.158;2022-07-29T17:44:29;23.70;43.60
728;DHT22;347;48.780;9.158;2022-07-29T17:46:55;23.80;42.70
728;DHT22;347;48.780;9.158;2022-07-29T17:49:21;23.80;41.50
728;DHT22;347;48.780;9.158;2022-07-29T17:51:46;23.80;41.10
728;DHT22;347;48.780;9.158;2022-07-29T17:54:16;23.80;40.70
728;DHT22;347;48.780;9.158;2022-07-29T17:56:41;23.80;40.60
728;DHT22;347;48.780;9.158;2022-07-29T17:59:07;23.80;40.50
728;DHT22;347;48.780;9.158;2022-07-29T18:01:35;23.90;41.90